sensor_id;sensor_type;location;lat;lon;timestamp;P1;durP1;ratioP1;P2;durP2;ratioP2
71238;SDS011;61342;51.442;7.370;2022-10-16T00:00:24;3.83;;;2.20;;
71238;SDS011;61342;51.442;7.370;2022-10-16T00:01:29;3.60;;;2.27;;
71238;SDS011;61342;51.442;7.370;2022-10-16T00:02:30;4.33;;;2.30;;
71238;SDS011;61342;51.442;7.370;2022-10-16T00:03:30;4.77;;;2.13;;
71238;SDS011;61342;51.442;7.370;2022-10-16T00:04:31;3.50;;;1.97;;
71238;SDS011;61342;51.442;7.370;2022-10-16T00:05:31;5.27;;;2.40;;
71238;SDS011;61342;51.442;7.370;2022-10-16T00:06:32;4.63;;;2.23;;
71238;SDS011;61342;51.442;7.370;2022-10-16T00:07:32;4.07;;;2.70;;
71238;SDS011;61342;51.442;7.370;2022-10-16T00:08:33;3.13;;;1.80;;
71238;SDS011;61342;51.442;7.370;2022-10-16T00:09:33;2.97;;;2.20;;
71238;SDS011;61342;51.442;7.370;2022-10-16T00:10:34;7.80;;;2.30;;
71238;SDS011;61342;51.442;7.370;2022-10-16T00:11:35;2.87;;;2.00;;
71238;SDS011;61342;51.442;7.370;2022-10-16T00:12:38;5.80;;;2.20;;
71238;SDS011;61342;51.442;7.370;2022-10-16T00:13:39;3.90;;;1.70;;
71238;SDS011;61342;51.442;7.370;2022-10-16T00:14:40;2.33;;;1.83;;
71238;SDS011;61342;51.442;7.370;2022-10-16T00:15:42;5.00;;;1.70;;
71238;SDS011;61342;51.442;7.370;2022-10-16T00:16:43;5.63;;;1.90;;
71238;SDS011;61342;51.442;7.370;2022-10-16T00:17:44;4.57;;;2.00;;
71238;SDS011;61342;51.442;7.370;2022-10-16T00:18:44;5.87;;;1.73;;
71238;SDS011;61342;51.442;7.370;2022-10-16T00:19:45;5.40;;;2.00;;
71238;SDS011;61342;51.442;7.370;2022-10-16T00:20:45;1.97;;;1.70;;
71238;SDS011;61342;51.442;7.370;2022-10-16T00:21:45;5.20;;;2.00;;
71238;SDS011;61342;51.442;7.370;2022-10-16T00:22:46;3.93;;;2.20;;
71238;SDS011;61342;51.442;7.370;2022-10-16T00:23:46;4.50;;;1.97;;
71238;SDS011;61342;51.442;7.370;2022-10-16T00:24:50;4.63;;;2.13;;
71238;SDS011;61342;51.442;7.370;2022-10-16T00:25:54;2.93;;;1.90;;
71238;SDS011;61342;51.442;7.370;2022-10-16T00:26:56;2.50;;;1.63;;
71238;SDS011;61342;51.442;7.370;2022-10-16T00:27:57;4.00;;;1.90;;
71238;SDS011;61342;51.442;7.370;2022-10-16T00:28:57;4.10;;;1.80;;
71238;SDS011;61342;51.442;7.370;2022-10-16T00:29:58;7.27;;;2.00;;
71238;SDS011;61342;51.442;7.370;2022-10-16T00:30:58;2.37;;;1.70;;
71238;SDS011;61342;51.442;7.370;2022-10-16T00:31:58;6.23;;;2.03;;
71238;SDS011;61342;51.442;7.370;2022-10-16T00:32:59;4.20;;;2.00;;
71238;SDS011;61342;51.442;7.370;2022-10-16T00:33:59;2.80;;;1.90;;
71238;SDS011;61342;51.442;7.370;2022-10-16T00:35:00;4.23;;;1.80;;
71238;SDS011;61342;51.442;7.370;2022-10-16T00:36:01;6.60;;;1.90;;
71238;SDS011;61342;51.442;7.370;2022-10-16T00:37:03;3.13;;;1.80;;
71238;SDS011;61342;51.442;7.370;2022-10-16T00:38:03;4.03;;;2.00;;
71238;SDS011;61342;51.442;7.370;2022-10-16T00:39:04;4.43;;;1.90;;
71238;SDS011;61342;51.442;7.370;2022-10-16T00:40:04;4.23;;;1.97;;
71238;SDS011;61342;51.442;7.370;2022-10-16T00:41:06;5.53;;;1.80;;
71238;SDS011;61342;51.442;7.370;2022-10-16T00:42:10;2.73;;;1.90;;
71238;SDS011;61342;51.442;7.370;2022-10-16T00:45:41;5.10;;;2.10;;
71238;SDS011;61342;51.442;7.370;2022-10-16T00:46:42;2.53;;;1.83;;
71238;SDS011;61342;51.442;7.370;2022-10-16T00:47:43;7.00;;;2.17;;
71238;SDS011;61342;51.442;7.370;2022-10-16T00:48:55;2.97;;;2.13;;
71238;SDS011;61342;51.442;7.370;2022-10-16T00:50:05;4.70;;;1.70;;
71238;SDS011;61342;51.442;7.370;2022-10-16T00:51:13;3.70;;;1.87;;
71238;SDS011;61342;51.442;7.370;2022-10-16T00:52:14;3.90;;;2.23;;
71238;SDS011;61342;51.442;7.370;2022-10-16T00:53:15;5.27;;;1.70;;
71238;SDS011;61342;51.442;7.370;2022-10-16T00:54:25;3.23;;;1.70;;
71238;SDS011;61342;51.442;7.370;2022-10-16T00:55:27;2.27;;;1.50;;
71238;SDS011;61342;51.442;7.370;2022-10-16T00:56:30;2.23;;;1.83;;
71238;SDS011;61342;51.442;7.370;2022-10-16T00:57:31;3.23;;;1.93;;
71238;SDS011;61342;51.442;7.370;2022-10-16T00:58:32;3.00;;;1.87;;
71238;SDS011;61342;51.442;7.370;2022-10-16T00:59:33;4.20;;;1.90;;
71238;SDS011;61342;51.442;7.370;2022-10-16T01:00:36;2.53;;;2.07;;
71238;SDS011;61342;51.442;7.370;2022-10-16T01:01:37;3.07;;;1.67;;
71238;SDS011;61342;51.442;7.370;2022-10-16T01:02:38;3.00;;;1.70;;
71238;SDS011;61342;51.442;7.370;2022-10-16T01:03:38;2.60;;;1.60;;
71238;SDS011;61342;51.442;7.370;2022-10-16T01:04:39;2.93;;;1.73;;
71238;SDS011;61342;51.442;7.370;2022-10-16T01:05:44;3.33;;;1.93;;
71238;SDS011;61342;51.442;7.370;2022-10-16T01:07:57;2.57;;;1.80;;
71238;SDS011;61342;51.442;7.370;2022-10-16T01:08:39;2.80;;;1.60;;
71238;SDS011;61342;51.442;7.370;2022-10-16T01:10:57;3.53;;;1.50;;
71238;SDS011;61342;51.442;7.370;2022-10-16T01:12:05;4.23;;;1.63;;
71238;SDS011;61342;51.442;7.370;2022-10-16T01:13:11;3.37;;;1.90;;
71238;SDS011;61342;51.442;7.370;2022-10-16T01:14:47;2.77;;;1.63;;
71238;SDS011;61342;51.442;7.370;2022-10-16T01:15:53;3.70;;;1.80;;
71238;SDS011;61342;51.442;7.370;2022-10-16T01:17:04;5.03;;;2.10;;
71238;SDS011;61342;51.442;7.370;2022-10-16T01:18:23;3.60;;;1.80;;
71238;SDS011;61342;51.442;7.370;2022-10-16T01:21:27;6.07;;;1.80;;
71238;SDS011;61342;51.442;7.370;2022-10-16T01:25:14;1.70;;;1.53;;
71238;SDS011;61342;51.442;7.370;2022-10-16T01:28:04;2.23;;;1.57;;
71238;SDS011;61342;51.442;7.370;2022-10-16T01:29:20;13.60;;;2.00;;
71238;SDS011;61342;51.442;7.370;2022-10-16T01:30:27;2.83;;;1.80;;
71238;SDS011;61342;51.442;7.370;2022-10-16T01:31:31;2.90;;;1.70;;
71238;SDS011;61342;51.442;7.370;2022-10-16T01:32:49;2.87;;;1.60;;
71238;SDS011;61342;51.442;7.370;2022-10-16T01:34:05;2.77;;;1.67;;
71238;SDS011;61342;51.442;7.370;2022-10-16T01:35:18;2.60;;;1.60;;
71238;SDS011;61342;51.442;7.370;2022-10-16T01:36:26;2.27;;;1.87;;
71238;SDS011;61342;51.442;7.370;2022-10-16T01:37:38;2.07;;;1.70;;
71238;SDS011;61342;51.442;7.370;2022-10-16T01:38:47;1.87;;;1.60;;
71238;SDS011;61342;51.442;7.370;2022-10-16T01:39:52;2.63;;;1.67;;
71238;SDS011;61342;51.442;7.370;2022-10-16T01:41:00;5.53;;;1.93;;
71238;SDS011;61342;51.442;7.370;2022-10-16T01:42:06;3.70;;;1.50;;
71238;SDS011;61342;51.442;7.370;2022-10-16T01:43:20;2.40;;;1.70;;
71238;SDS011;61342;51.442;7.370;2022-10-16T01:44:28;2.60;;;1.60;;
71238;SDS011;61342;51.442;7.370;2022-10-16T01:45:31;3.90;;;1.70;;
71238;SDS011;61342;51.442;7.370;2022-10-16T01:46:33;3.07;;;1.90;;
71238;SDS011;61342;51.442;7.370;2022-10-16T01:47:35;3.03;;;1.83;;
71238;SDS011;61342;51.442;7.370;2022-10-16T01:48:37;2.53;;;1.80;;
71238;SDS011;61342;51.442;7.370;2022-10-16T01:49:39;2.03;;;1.90;;
71238;SDS011;61342;51.442;7.370;2022-10-16T01:50:41;2.83;;;1.90;;
71238;SDS011;61342;51.442;7.370;2022-10-16T01:51:44;4.00;;;1.90;;
71238;SDS011;61342;51.442;7.370;2022-10-16T01:52:49;2.60;;;1.80;;
71238;SDS011;61342;51.442;7.370;2022-10-16T01:53:53;2.73;;;1.77;;
71238;SDS011;61342;51.442;7.370;2022-10-16T01:54:55;3.13;;;2.00;;
71238;SDS011;61342;51.442;7.370;2022-10-16T01:55:58;2.00;;;1.70;;
71238;SDS011;61342;51.442;7.370;2022-10-16T01:57:00;3.00;;;1.60;;
71238;SDS011;61342;51.442;7.370;2022-10-16T01:58:03;2.73;;;1.77;;
71238;SDS011;61342;51.442;7.370;2022-10-16T01:59:11;2.47;;;1.80;;
71238;SDS011;61342;51.442;7.370;2022-10-16T02:00:15;3.57;;;1.90;;
71238;SDS011;61342;51.442;7.370;2022-10-16T02:01:19;2.00;;;1.73;;
71238;SDS011;61342;51.442;7.370;2022-10-16T02:02:23;4.13;;;1.80;;
71238;SDS011;61342;51.442;7.370;2022-10-16T02:03:28;2.80;;;1.70;;
71238;SDS011;61342;51.442;7.370;2022-10-16T02:04:33;3.67;;;1.73;;
71238;SDS011;61342;51.442;7.370;2022-10-16T02:05:42;2.77;;;1.80;;
71238;SDS011;61342;51.442;7.370;2022-10-16T02:06:52;5.37;;;2.57;;
71238;SDS011;61342;51.442;7.370;2022-10-16T02:07:52;2.70;;;1.60;;
71238;SDS011;61342;51.442;7.370;2022-10-16T02:08:53;3.90;;;1.63;;
71238;SDS011;61342;51.442;7.370;2022-10-16T02:09:53;3.93;;;1.80;;
71238;SDS011;61342;51.442;7.370;2022-10-16T02:10:55;2.60;;;1.70;;
71238;SDS011;61342;51.442;7.370;2022-10-16T02:11:56;3.87;;;2.00;;
71238;SDS011;61342;51.442;7.370;2022-10-16T02:13:22;4.00;;;2.13;;
71238;SDS011;61342;51.442;7.370;2022-10-16T02:14:23;3.03;;;1.77;;
71238;SDS011;61342;51.442;7.370;2022-10-16T02:15:24;4.37;;;2.20;;
71238;SDS011;61342;51.442;7.370;2022-10-16T02:17:54;2.27;;;1.40;;
71238;SDS011;61342;51.442;7.370;2022-10-16T02:18:54;1.83;;;1.63;;
71238;SDS011;61342;51.442;7.370;2022-10-16T02:19:55;3.50;;;1.60;;
71238;SDS011;61342;51.442;7.370;2022-10-16T02:22:02;3.23;;;1.87;;
71238;SDS011;61342;51.442;7.370;2022-10-16T02:23:04;3.70;;;1.67;;
71238;SDS011;61342;51.442;7.370;2022-10-16T02:25:17;4.17;;;1.60;;
71238;SDS011;61342;51.442;7.370;2022-10-16T02:26:27;5.00;;;1.73;;
71238;SDS011;61342;51.442;7.370;2022-10-16T02:28:52;3.60;;;1.60;;
71238;SDS011;61342;51.442;7.370;2022-10-16T02:30:58;5.10;;;1.90;;
71238;SDS011;61342;51.442;7.370;2022-10-16T02:31:41;1.67;;;1.57;;
71238;SDS011;61342;51.442;7.370;2022-10-16T02:32:43;3.10;;;1.83;;
71238;SDS011;61342;51.442;7.370;2022-10-16T02:33:47;3.40;;;1.63;;
71238;SDS011;61342;51.442;7.370;2022-10-16T02:34:50;4.87;;;2.10;;
71238;SDS011;61342;51.442;7.370;2022-10-16T02:35:51;4.63;;;1.60;;
71238;SDS011;61342;51.442;7.370;2022-10-16T02:36:53;3.43;;;1.60;;
71238;SDS011;61342;51.442;7.370;2022-10-16T02:37:54;2.57;;;1.97;;
71238;SDS011;61342;51.442;7.370;2022-10-16T02:38:56;5.57;;;1.70;;
71238;SDS011;61342;51.442;7.370;2022-10-16T02:39:59;2.37;;;1.57;;
71238;SDS011;61342;51.442;7.370;2022-10-16T02:40:59;2.83;;;1.90;;
71238;SDS011;61342;51.442;7.370;2022-10-16T02:41:59;2.20;;;1.60;;
71238;SDS011;61342;51.442;7.370;2022-10-16T02:43:00;4.60;;;1.80;;
71238;SDS011;61342;51.442;7.370;2022-10-16T02:44:03;3.37;;;1.90;;
71238;SDS011;61342;51.442;7.370;2022-10-16T02:45:04;4.07;;;2.03;;
71238;SDS011;61342;51.442;7.370;2022-10-16T02:46:06;3.70;;;1.70;;
71238;SDS011;61342;51.442;7.370;2022-10-16T02:47:06;2.47;;;1.60;;
71238;SDS011;61342;51.442;7.370;2022-10-16T02:48:07;2.43;;;1.60;;
71238;SDS011;61342;51.442;7.370;2022-10-16T02:49:07;2.27;;;1.57;;
71238;SDS011;61342;51.442;7.370;2022-10-16T02:50:07;4.13;;;1.50;;
71238;SDS011;61342;51.442;7.370;2022-10-16T02:51:08;1.80;;;1.50;;
71238;SDS011;61342;51.442;7.370;2022-10-16T02:52:08;2.57;;;1.57;;
71238;SDS011;61342;51.442;7.370;2022-10-16T02:53:08;4.33;;;1.90;;
71238;SDS011;61342;51.442;7.370;2022-10-16T02:54:09;1.50;;;1.40;;
71238;SDS011;61342;51.442;7.370;2022-10-16T02:55:09;3.33;;;1.80;;
71238;SDS011;61342;51.442;7.370;2022-10-16T02:56:09;1.80;;;1.60;;
71238;SDS011;61342;51.442;7.370;2022-10-16T02:57:10;4.93;;;1.63;;
71238;SDS011;61342;51.442;7.370;2022-10-16T02:58:10;1.40;;;1.30;;
71238;SDS011;61342;51.442;7.370;2022-10-16T02:59:10;3.70;;;1.80;;
71238;SDS011;61342;51.442;7.370;2022-10-16T03:00:12;1.60;;;1.50;;
71238;SDS011;61342;51.442;7.370;2022-10-16T03:01:14;1.73;;;1.50;;
71238;SDS011;61342;51.442;7.370;2022-10-16T03:02:16;2.20;;;1.53;;
71238;SDS011;61342;51.442;7.370;2022-10-16T03:03:17;3.70;;;1.80;;
71238;SDS011;61342;51.442;7.370;2022-10-16T03:04:17;3.33;;;1.73;;
71238;SDS011;61342;51.442;7.370;2022-10-16T03:05:17;3.13;;;1.43;;
71238;SDS011;61342;51.442;7.370;2022-10-16T03:06:18;1.70;;;1.47;;
71238;SDS011;61342;51.442;7.370;2022-10-16T03:07:18;1.80;;;1.70;;
71238;SDS011;61342;51.442;7.370;2022-10-16T03:08:19;3.87;;;1.57;;
71238;SDS011;61342;51.442;7.370;2022-10-16T03:09:23;2.23;;;1.47;;
71238;SDS011;61342;51.442;7.370;2022-10-16T03:10:23;2.00;;;1.30;;
71238;SDS011;61342;51.442;7.370;2022-10-16T03:11:24;4.27;;;1.53;;
71238;SDS011;61342;51.442;7.370;2022-10-16T03:12:24;2.17;;;1.53;;
71238;SDS011;61342;51.442;7.370;2022-10-16T03:13:24;4.87;;;1.33;;
71238;SDS011;61342;51.442;7.370;2022-10-16T03:14:24;2.07;;;1.40;;
71238;SDS011;61342;51.442;7.370;2022-10-16T03:15:25;2.93;;;1.30;;
71238;SDS011;61342;51.442;7.370;2022-10-16T03:16:25;1.53;;;1.40;;
71238;SDS011;61342;51.442;7.370;2022-10-16T03:17:26;4.00;;;1.27;;
71238;SDS011;61342;51.442;7.370;2022-10-16T03:18:26;2.37;;;1.53;;
71238;SDS011;61342;51.442;7.370;2022-10-16T03:19:26;3.30;;;1.40;;
71238;SDS011;61342;51.442;7.370;2022-10-16T03:20:27;2.77;;;1.37;;
71238;SDS011;61342;51.442;7.370;2022-10-16T03:21:27;1.97;;;1.50;;
71238;SDS011;61342;51.442;7.370;2022-10-16T03:22:27;2.57;;;1.80;;
71238;SDS011;61342;51.442;7.370;2022-10-16T03:23:28;1.87;;;1.60;;
71238;SDS011;61342;51.442;7.370;2022-10-16T03:24:28;2.20;;;1.37;;
71238;SDS011;61342;51.442;7.370;2022-10-16T03:25:29;1.67;;;1.40;;
71238;SDS011;61342;51.442;7.370;2022-10-16T03:26:29;2.60;;;1.33;;
71238;SDS011;61342;51.442;7.370;2022-10-16T03:27:29;4.07;;;1.50;;
71238;SDS011;61342;51.442;7.370;2022-10-16T03:28:30;1.93;;;1.40;;
71238;SDS011;61342;51.442;7.370;2022-10-16T03:29:30;2.50;;;1.50;;
71238;SDS011;61342;51.442;7.370;2022-10-16T03:30:32;1.40;;;1.30;;
71238;SDS011;61342;51.442;7.370;2022-10-16T03:31:32;1.33;;;1.23;;
71238;SDS011;61342;51.442;7.370;2022-10-16T03:32:32;2.37;;;1.30;;
71238;SDS011;61342;51.442;7.370;2022-10-16T03:33:33;4.57;;;1.63;;
71238;SDS011;61342;51.442;7.370;2022-10-16T03:34:33;2.20;;;1.63;;
71238;SDS011;61342;51.442;7.370;2022-10-16T03:35:34;1.93;;;1.33;;
71238;SDS011;61342;51.442;7.370;2022-10-16T03:36:34;3.87;;;1.50;;
71238;SDS011;61342;51.442;7.370;2022-10-16T03:37:34;6.83;;;1.77;;
71238;SDS011;61342;51.442;7.370;2022-10-16T03:38:35;1.97;;;1.70;;
71238;SDS011;61342;51.442;7.370;2022-10-16T03:39:35;3.37;;;1.57;;
71238;SDS011;61342;51.442;7.370;2022-10-16T03:40:36;2.70;;;1.67;;
71238;SDS011;61342;51.442;7.370;2022-10-16T03:41:36;5.40;;;1.43;;
71238;SDS011;61342;51.442;7.370;2022-10-16T03:42:36;2.50;;;1.30;;
71238;SDS011;61342;51.442;7.370;2022-10-16T03:43:37;2.77;;;1.30;;
71238;SDS011;61342;51.442;7.370;2022-10-16T03:44:38;3.17;;;1.40;;
71238;SDS011;61342;51.442;7.370;2022-10-16T03:45:38;3.30;;;1.30;;
71238;SDS011;61342;51.442;7.370;2022-10-16T03:46:38;2.73;;;1.30;;
71238;SDS011;61342;51.442;7.370;2022-10-16T03:47:39;1.43;;;1.33;;
71238;SDS011;61342;51.442;7.370;2022-10-16T03:48:40;1.93;;;1.50;;
71238;SDS011;61342;51.442;7.370;2022-10-16T03:49:40;1.50;;;1.40;;
71238;SDS011;61342;51.442;7.370;2022-10-16T03:50:40;2.50;;;1.30;;
71238;SDS011;61342;51.442;7.370;2022-10-16T03:51:41;1.87;;;1.63;;
71238;SDS011;61342;51.442;7.370;2022-10-16T03:52:41;1.00;;;1.00;;
71238;SDS011;61342;51.442;7.370;2022-10-16T03:53:41;1.60;;;1.40;;
71238;SDS011;61342;51.442;7.370;2022-10-16T03:54:42;2.20;;;1.40;;
71238;SDS011;61342;51.442;7.370;2022-10-16T03:55:42;1.93;;;1.30;;
71238;SDS011;61342;51.442;7.370;2022-10-16T03:56:43;1.70;;;1.20;;
71238;SDS011;61342;51.442;7.370;2022-10-16T03:57:43;2.40;;;1.37;;
71238;SDS011;61342;51.442;7.370;2022-10-16T03:58:43;1.93;;;1.60;;
71238;SDS011;61342;51.442;7.370;2022-10-16T03:59:44;1.63;;;1.47;;
71238;SDS011;61342;51.442;7.370;2022-10-16T04:00:44;2.67;;;1.27;;
71238;SDS011;61342;51.442;7.370;2022-10-16T04:01:46;2.17;;;1.20;;
71238;SDS011;61342;51.442;7.370;2022-10-16T04:02:46;2.57;;;1.50;;
71238;SDS011;61342;51.442;7.370;2022-10-16T04:03:46;2.23;;;1.37;;
71238;SDS011;61342;51.442;7.370;2022-10-16T04:04:47;1.60;;;1.20;;
71238;SDS011;61342;51.442;7.370;2022-10-16T04:05:47;7.70;;;1.70;;
71238;SDS011;61342;51.442;7.370;2022-10-16T04:06:47;1.40;;;1.30;;
71238;SDS011;61342;51.442;7.370;2022-10-16T04:07:48;2.90;;;1.33;;
71238;SDS011;61342;51.442;7.370;2022-10-16T04:08:48;1.67;;;1.40;;
71238;SDS011;61342;51.442;7.370;2022-10-16T04:09:48;1.80;;;1.20;;
71238;SDS011;61342;51.442;7.370;2022-10-16T04:10:49;1.83;;;1.30;;
71238;SDS011;61342;51.442;7.370;2022-10-16T04:11:49;3.27;;;1.40;;
71238;SDS011;61342;51.442;7.370;2022-10-16T04:12:50;2.30;;;1.30;;
71238;SDS011;61342;51.442;7.370;2022-10-16T04:13:51;1.40;;;1.30;;
71238;SDS011;61342;51.442;7.370;2022-10-16T04:14:51;4.77;;;1.23;;
71238;SDS011;61342;51.442;7.370;2022-10-16T04:15:51;1.93;;;1.10;;
71238;SDS011;61342;51.442;7.370;2022-10-16T04:16:51;1.90;;;1.30;;
71238;SDS011;61342;51.442;7.370;2022-10-16T04:17:52;3.37;;;1.40;;
71238;SDS011;61342;51.442;7.370;2022-10-16T04:18:52;2.70;;;1.40;;
71238;SDS011;61342;51.442;7.370;2022-10-16T04:19:52;2.63;;;1.27;;
71238;SDS011;61342;51.442;7.370;2022-10-16T04:20:53;2.30;;;1.37;;
71238;SDS011;61342;51.442;7.370;2022-10-16T04:21:54;1.57;;;1.23;;
71238;SDS011;61342;51.442;7.370;2022-10-16T04:22:54;3.43;;;1.27;;
71238;SDS011;61342;51.442;7.370;2022-10-16T04:23:54;2.47;;;1.30;;
71238;SDS011;61342;51.442;7.370;2022-10-16T04:24:54;3.37;;;1.30;;
71238;SDS011;61342;51.442;7.370;2022-10-16T04:25:55;2.23;;;1.30;;
71238;SDS011;61342;51.442;7.370;2022-10-16T04:26:55;1.73;;;1.30;;
71238;SDS011;61342;51.442;7.370;2022-10-16T04:27:55;2.83;;;1.20;;
71238;SDS011;61342;51.442;7.370;2022-10-16T04:28:56;1.30;;;1.10;;
71238;SDS011;61342;51.442;7.370;2022-10-16T04:29:57;1.00;;;1.00;;
71238;SDS011;61342;51.442;7.370;2022-10-16T04:30:58;2.77;;;1.23;;
71238;SDS011;61342;51.442;7.370;2022-10-16T04:31:58;3.60;;;1.30;;
71238;SDS011;61342;51.442;7.370;2022-10-16T04:32:58;2.27;;;1.30;;
71238;SDS011;61342;51.442;7.370;2022-10-16T04:33:59;2.97;;;1.40;;
71238;SDS011;61342;51.442;7.370;2022-10-16T04:34:59;3.43;;;1.40;;
71238;SDS011;61342;51.442;7.370;2022-10-16T04:36:00;1.97;;;1.30;;
71238;SDS011;61342;51.442;7.370;2022-10-16T04:37:02;1.47;;;1.37;;
71238;SDS011;61342;51.442;7.370;2022-10-16T04:38:02;1.73;;;0.90;;
71238;SDS011;61342;51.442;7.370;2022-10-16T04:39:02;2.07;;;1.40;;
71238;SDS011;61342;51.442;7.370;2022-10-16T04:40:03;3.80;;;1.30;;
71238;SDS011;61342;51.442;7.370;2022-10-16T04:41:04;1.73;;;1.20;;
71238;SDS011;61342;51.442;7.370;2022-10-16T04:42:05;3.37;;;1.30;;
71238;SDS011;61342;51.442;7.370;2022-10-16T04:43:06;1.10;;;1.00;;
71238;SDS011;61342;51.442;7.370;2022-10-16T04:44:07;4.63;;;1.40;;
71238;SDS011;61342;51.442;7.370;2022-10-16T04:45:08;5.37;;;1.50;;
71238;SDS011;61342;51.442;7.370;2022-10-16T04:46:09;1.20;;;1.10;;
71238;SDS011;61342;51.442;7.370;2022-10-16T04:47:10;2.57;;;1.40;;
71238;SDS011;61342;51.442;7.370;2022-10-16T04:48:10;2.17;;;1.20;;
71238;SDS011;61342;51.442;7.370;2022-10-16T04:49:11;2.50;;;1.20;;
71238;SDS011;61342;51.442;7.370;2022-10-16T04:50:11;2.37;;;1.20;;
71238;SDS011;61342;51.442;7.370;2022-10-16T04:51:11;2.97;;;1.60;;
71238;SDS011;61342;51.442;7.370;2022-10-16T04:52:12;3.73;;;1.20;;
71238;SDS011;61342;51.442;7.370;2022-10-16T04:53:12;1.60;;;1.10;;
71238;SDS011;61342;51.442;7.370;2022-10-16T04:54:12;3.13;;;1.30;;
71238;SDS011;61342;51.442;7.370;2022-10-16T04:55:13;3.97;;;1.20;;
71238;SDS011;61342;51.442;7.370;2022-10-16T04:56:13;3.50;;;1.30;;
71238;SDS011;61342;51.442;7.370;2022-10-16T04:57:15;1.57;;;1.20;;
71238;SDS011;61342;51.442;7.370;2022-10-16T04:58:15;1.37;;;1.00;;
71238;SDS011;61342;51.442;7.370;2022-10-16T04:59:16;1.77;;;1.27;;
71238;SDS011;61342;51.442;7.370;2022-10-16T05:00:18;4.40;;;1.30;;
71238;SDS011;61342;51.442;7.370;2022-10-16T05:01:18;1.20;;;1.10;;
71238;SDS011;61342;51.442;7.370;2022-10-16T05:02:19;3.00;;;1.33;;
71238;SDS011;61342;51.442;7.370;2022-10-16T05:03:19;1.43;;;1.17;;
71238;SDS011;61342;51.442;7.370;2022-10-16T05:04:19;3.53;;;1.37;;
71238;SDS011;61342;51.442;7.370;2022-10-16T05:05:20;1.43;;;1.03;;
71238;SDS011;61342;51.442;7.370;2022-10-16T05:06:20;1.27;;;1.13;;
71238;SDS011;61342;51.442;7.370;2022-10-16T05:07:21;1.40;;;1.30;;
71238;SDS011;61342;51.442;7.370;2022-10-16T05:08:21;4.40;;;1.50;;
71238;SDS011;61342;51.442;7.370;2022-10-16T05:09:21;1.20;;;1.10;;
71238;SDS011;61342;51.442;7.370;2022-10-16T05:10:22;1.50;;;1.03;;
71238;SDS011;61342;51.442;7.370;2022-10-16T05:11:22;2.30;;;1.13;;
71238;SDS011;61342;51.442;7.370;2022-10-16T05:12:22;1.43;;;1.10;;
71238;SDS011;61342;51.442;7.370;2022-10-16T05:13:23;1.00;;;0.90;;
71238;SDS011;61342;51.442;7.370;2022-10-16T05:14:23;1.20;;;1.10;;
71238;SDS011;61342;51.442;7.370;2022-10-16T05:15:23;2.20;;;1.07;;
71238;SDS011;61342;51.442;7.370;2022-10-16T05:16:25;3.07;;;1.30;;
71238;SDS011;61342;51.442;7.370;2022-10-16T05:17:25;1.40;;;1.17;;
71238;SDS011;61342;51.442;7.370;2022-10-16T05:18:26;1.60;;;1.23;;
71238;SDS011;61342;51.442;7.370;2022-10-16T05:19:26;1.67;;;1.17;;
71238;SDS011;61342;51.442;7.370;2022-10-16T05:20:27;1.13;;;0.90;;
71238;SDS011;61342;51.442;7.370;2022-10-16T05:21:27;3.23;;;1.17;;
71238;SDS011;61342;51.442;7.370;2022-10-16T05:22:27;2.50;;;1.10;;
71238;SDS011;61342;51.442;7.370;2022-10-16T05:23:28;2.67;;;1.33;;
71238;SDS011;61342;51.442;7.370;2022-10-16T05:24:28;2.20;;;1.40;;
71238;SDS011;61342;51.442;7.370;2022-10-16T05:25:28;3.20;;;1.30;;
71238;SDS011;61342;51.442;7.370;2022-10-16T05:26:29;2.67;;;1.00;;
71238;SDS011;61342;51.442;7.370;2022-10-16T05:27:29;1.43;;;1.10;;
71238;SDS011;61342;51.442;7.370;2022-10-16T05:28:31;4.00;;;1.10;;
71238;SDS011;61342;51.442;7.370;2022-10-16T05:29:31;1.20;;;1.10;;
71238;SDS011;61342;51.442;7.370;2022-10-16T05:30:32;1.93;;;1.20;;
71238;SDS011;61342;51.442;7.370;2022-10-16T05:31:32;2.40;;;1.17;;
71238;SDS011;61342;51.442;7.370;2022-10-16T05:32:33;1.30;;;1.20;;
71238;SDS011;61342;51.442;7.370;2022-10-16T05:33:33;3.70;;;1.20;;
71238;SDS011;61342;51.442;7.370;2022-10-16T05:34:34;3.77;;;1.40;;
71238;SDS011;61342;51.442;7.370;2022-10-16T05:35:34;2.93;;;1.30;;
71238;SDS011;61342;51.442;7.370;2022-10-16T05:36:34;2.30;;;1.30;;
71238;SDS011;61342;51.442;7.370;2022-10-16T05:37:35;2.73;;;1.40;;
71238;SDS011;61342;51.442;7.370;2022-10-16T05:38:35;3.33;;;1.20;;
71238;SDS011;61342;51.442;7.370;2022-10-16T05:39:37;1.40;;;1.30;;
71238;SDS011;61342;51.442;7.370;2022-10-16T05:40:38;2.03;;;1.10;;
71238;SDS011;61342;51.442;7.370;2022-10-16T05:41:38;2.10;;;1.40;;
71238;SDS011;61342;51.442;7.370;2022-10-16T05:42:39;2.00;;;1.17;;
71238;SDS011;61342;51.442;7.370;2022-10-16T05:43:39;1.97;;;1.33;;
71238;SDS011;61342;51.442;7.370;2022-10-16T05:44:39;2.83;;;1.37;;
71238;SDS011;61342;51.442;7.370;2022-10-16T05:45:40;1.40;;;1.23;;
71238;SDS011;61342;51.442;7.370;2022-10-16T05:46:40;7.23;;;1.40;;
71238;SDS011;61342;51.442;7.370;2022-10-16T05:47:40;1.30;;;1.20;;
71238;SDS011;61342;51.442;7.370;2022-10-16T05:48:41;3.07;;;1.40;;
71238;SDS011;61342;51.442;7.370;2022-10-16T05:49:41;2.13;;;1.17;;
71238;SDS011;61342;51.442;7.370;2022-10-16T05:50:42;5.97;;;1.33;;
71238;SDS011;61342;51.442;7.370;2022-10-16T05:51:42;1.40;;;1.30;;
71238;SDS011;61342;51.442;7.370;2022-10-16T05:52:42;1.67;;;1.20;;
71238;SDS011;61342;51.442;7.370;2022-10-16T05:53:43;2.07;;;1.50;;
71238;SDS011;61342;51.442;7.370;2022-10-16T05:54:43;1.73;;;1.20;;
71238;SDS011;61342;51.442;7.370;2022-10-16T05:55:43;1.37;;;1.27;;
71238;SDS011;61342;51.442;7.370;2022-10-16T05:56:52;1.43;;;1.00;;
71238;SDS011;61342;51.442;7.370;2022-10-16T05:57:54;1.67;;;1.57;;
71238;SDS011;61342;51.442;7.370;2022-10-16T05:58:54;4.37;;;1.30;;
71238;SDS011;61342;51.442;7.370;2022-10-16T05:59:55;5.80;;;1.20;;
71238;SDS011;61342;51.442;7.370;2022-10-16T06:00:56;2.30;;;1.40;;
71238;SDS011;61342;51.442;7.370;2022-10-16T06:01:58;2.57;;;1.10;;
71238;SDS011;61342;51.442;7.370;2022-10-16T06:02:58;1.63;;;1.20;;
71238;SDS011;61342;51.442;7.370;2022-10-16T06:03:59;2.97;;;1.10;;
71238;SDS011;61342;51.442;7.370;2022-10-16T06:04:59;1.90;;;1.23;;
71238;SDS011;61342;51.442;7.370;2022-10-16T06:06:06;2.80;;;1.17;;
71238;SDS011;61342;51.442;7.370;2022-10-16T06:07:09;1.97;;;1.37;;
71238;SDS011;61342;51.442;7.370;2022-10-16T06:08:10;2.97;;;1.27;;
71238;SDS011;61342;51.442;7.370;2022-10-16T06:09:11;1.20;;;1.10;;
71238;SDS011;61342;51.442;7.370;2022-10-16T06:10:11;1.00;;;1.00;;
71238;SDS011;61342;51.442;7.370;2022-10-16T06:11:12;3.37;;;1.20;;
71238;SDS011;61342;51.442;7.370;2022-10-16T06:12:15;3.10;;;1.30;;
71238;SDS011;61342;51.442;7.370;2022-10-16T06:13:16;1.30;;;1.20;;
71238;SDS011;61342;51.442;7.370;2022-10-16T06:14:16;1.30;;;1.20;;
71238;SDS011;61342;51.442;7.370;2022-10-16T06:15:17;2.07;;;1.30;;
71238;SDS011;61342;51.442;7.370;2022-10-16T06:16:17;3.43;;;1.23;;
71238;SDS011;61342;51.442;7.370;2022-10-16T06:17:17;2.63;;;1.30;;
71238;SDS011;61342;51.442;7.370;2022-10-16T06:18:18;3.63;;;1.30;;
71238;SDS011;61342;51.442;7.370;2022-10-16T06:19:18;1.30;;;1.20;;
71238;SDS011;61342;51.442;7.370;2022-10-16T06:20:18;1.77;;;1.40;;
71238;SDS011;61342;51.442;7.370;2022-10-16T06:21:20;1.30;;;1.20;;
71238;SDS011;61342;51.442;7.370;2022-10-16T06:22:22;3.20;;;1.40;;
71238;SDS011;61342;51.442;7.370;2022-10-16T06:23:22;1.30;;;1.20;;
71238;SDS011;61342;51.442;7.370;2022-10-16T06:24:23;4.13;;;1.27;;
71238;SDS011;61342;51.442;7.370;2022-10-16T06:25:24;2.80;;;1.20;;
71238;SDS011;61342;51.442;7.370;2022-10-16T06:26:25;1.63;;;1.20;;
71238;SDS011;61342;51.442;7.370;2022-10-16T06:27:27;3.10;;;1.30;;
71238;SDS011;61342;51.442;7.370;2022-10-16T06:28:27;2.97;;;2.07;;
71238;SDS011;61342;51.442;7.370;2022-10-16T06:29:28;3.63;;;1.80;;